createdAt,value
2022-12-18T00:01:07.313Z,103043.13
2022-12-18T00:03:34.851Z,103032.59
2022-12-18T00:06:01.650Z,103019.47
2022-12-18T00:08:28.728Z,103015.03
2022-12-18T00:10:55.843Z,103015.09
2022-12-18T00:13:28.765Z,103016.22
2022-12-18T00:15:56.649Z,103028.38
2022-12-18T00:18:23.516Z,103023.94
2022-12-18T00:20:50.015Z,103019.59
2022-12-18T00:23:16.583Z,103017.88
2022-12-18T00:25:43.630Z,103022.31
2022-12-18T00:28:10.592Z,103022.31
2022-12-18T00:30:37.088Z,103011.16
2022-12-18T00:33:03.742Z,103022.38
2022-12-18T00:35:30.757Z,103014.59
2022-12-18T00:37:57.290Z,103015.38
2022-12-18T00:40:23.869Z,103019.03
2022-12-18T00:42:56.913Z,103013.88
2022-12-18T00:45:25.667Z,103021.69
2022-12-18T00:47:53.264Z,103021.69
2022-12-18T00:50:20.055Z,103022.53
2022-12-18T00:52:46.589Z,103017.53
2022-12-18T00:55:14.250Z,103012.09
2022-12-18T00:57:41.604Z,103020.09
2022-12-18T01:00:11.561Z,103013.03
2022-12-18T01:02:38.403Z,103011.31
2022-12-18T01:05:06.052Z,103008.59
2022-12-18T01:07:33.099Z,103006.03
2022-12-18T01:09:59.599Z,103011.31
2022-12-18T01:12:26.603Z,103013.94
2022-12-18T01:14:53.576Z,103015.72
2022-12-18T01:17:20.071Z,103023.72
2022-12-18T01:19:46.597Z,103024.59
2022-12-18T01:22:13.124Z,103019.31
2022-12-18T01:24:40.149Z,103010.53
2022-12-18T01:27:06.696Z,103017.59
2022-12-18T01:29:33.711Z,103021.09
2022-12-18T01:32:00.789Z,103022.94
2022-12-18T01:34:27.406Z,103012.38
2022-12-18T01:36:54.065Z,103017.72
2022-12-18T01:39:20.628Z,103023.00
2022-12-18T01:42:03.344Z,103024.78
2022-12-18T01:45:23.601Z,103018.66
2022-12-18T01:48:00.374Z,103028.38
2022-12-18T01:50:31.440Z,103039.03
2022-12-18T01:53:03.200Z,103027.69
2022-12-18T01:55:34.480Z,103037.31
2022-12-18T01:58:02.281Z,103050.47
2022-12-18T02:00:29.013Z,103065.47
2022-12-18T02:02:55.726Z,103069.03
2022-12-18T02:05:45.106Z,103079.66
2022-12-18T02:08:22.799Z,103081.38
2022-12-18T02:11:00.713Z,103077.97
2022-12-18T02:13:39.696Z,103089.34
2022-12-18T02:16:37.736Z,103086.69
2022-12-18T02:19:39.942Z,103091.25
2022-12-18T02:22:36.336Z,103084.25
2022-12-18T02:25:36.933Z,103090.34
2022-12-18T02:28:07.853Z,103079.97
2022-12-18T02:30:38.721Z,103092.13
2022-12-18T02:33:09.840Z,103081.53
2022-12-18T02:35:39.630Z,103059.53
2022-12-18T02:38:07.044Z,103059.69
2022-12-18T02:40:34.005Z,103043.81
2022-12-18T02:43:08.508Z,103040.31
2022-12-18T02:45:35.494Z,103029.75
2022-12-18T02:48:02.840Z,103022.75
2022-12-18T02:50:39.535Z,103026.06
2022-12-18T02:53:32.135Z,103019.19
2022-12-18T02:56:13.673Z,103022.63
2022-12-18T02:58:51.673Z,103020.84
2022-12-18T03:01:26.967Z,103014.63
2022-12-18T03:04:00.582Z,103005.97
2022-12-18T03:06:49.574Z,103010.13
2022-12-18T03:09:22.768Z,103003.19
2022-12-18T03:12:15.610Z,103002.25
2022-12-18T03:14:44.776Z,103015.25
2022-12-18T03:17:16.154Z,103002.19
2022-12-18T03:19:47.648Z,103009.09
2022-12-18T03:22:14.863Z,103012.44
2022-12-18T03:24:41.670Z,103005.38
2022-12-18T03:27:14.156Z,102999.38
2022-12-18T03:29:47.780Z,103005.38
2022-12-18T03:32:34.258Z,102996.66
2022-12-18T03:35:04.977Z,102995.66
2022-12-18T03:37:32.182Z,102986.94
2022-12-18T03:39:58.906Z,102982.50
2022-12-18T03:42:44.301Z,102983.44
2022-12-18T03:45:14.370Z,102971.31
2022-12-18T03:48:12.209Z,102970.31
2022-12-18T03:50:57.103Z,102980.09
2022-12-18T03:53:34.645Z,102976.59
2022-12-18T03:56:02.967Z,102975.69
2022-12-18T03:58:32.747Z,102968.69
2022-12-18T04:01:03.713Z,102974.91
2022-12-18T04:03:32.714Z,102976.69
2022-12-18T04:06:01.867Z,102967.13
2022-12-18T04:08:29.980Z,102970.63
2022-12-18T04:10:56.714Z,102969.75
2022-12-18T04:13:30.640Z,102968.91
2022-12-18T04:15:57.971Z,102968.97
2022-12-18T04:18:25.101Z,102961.03
2022-12-18T04:20:52.082Z,102961.91
2022-12-18T04:23:19.177Z,102953.97
2022-12-18T04:25:47.546Z,102940.94
2022-12-18T04:28:14.610Z,102942.63
2022-12-18T04:30:41.853Z,102942.63
2022-12-18T04:33:13.170Z,102946.13
2022-12-18T04:35:42.036Z,102947.06
2022-12-18T04:38:09.444Z,102952.44
2022-12-18T04:40:37.427Z,102959.63
2022-12-18T04:43:05.005Z,102957.00
2022-12-18T04:45:32.921Z,102947.47
2022-12-18T04:48:00.597Z,102967.50
2022-12-18T04:50:28.187Z,102969.28
2022-12-18T04:52:56.150Z,102980.69
2022-12-18T04:55:23.270Z,102996.56
2022-12-18T04:57:49.821Z,103005.28
2022-12-18T05:00:17.238Z,103001.78
2022-12-18T05:02:44.026Z,103002.63
2022-12-18T05:05:12.076Z,103004.41
2022-12-18T05:07:38.824Z,103014.19
2022-12-18T05:10:06.362Z,103020.41
2022-12-18T05:12:33.512Z,103018.69
2022-12-18T05:15:00.586Z,103022.97
2022-12-18T05:17:27.104Z,103019.66
2022-12-18T05:19:54.070Z,103023.97
2022-12-18T05:22:21.069Z,103025.75
2022-12-18T05:24:48.075Z,103028.38
2022-12-18T05:27:15.137Z,103024.03
2022-12-18T05:29:42.370Z,103020.47
2022-12-18T05:32:08.893Z,103023.19
2022-12-18T05:34:35.431Z,103023.19
2022-12-18T05:37:01.988Z,103031.09
2022-12-18T05:39:28.577Z,103017.09
2022-12-18T05:41:55.691Z,103017.09
2022-12-18T05:44:22.654Z,103008.31
2022-12-18T05:46:49.275Z,103009.22
2022-12-18T05:49:15.904Z,103010.16
2022-12-18T05:51:42.394Z,103008.38
2022-12-18T05:54:09.270Z,102998.72
2022-12-18T05:56:35.810Z,103003.94
2022-12-18T05:59:02.828Z,102996.25
2022-12-18T06:01:30.360Z,102995.25
2022-12-18T06:03:58.194Z,102987.41
2022-12-18T06:06:27.128Z,102978.81
2022-12-18T06:08:55.059Z,102990.91
2022-12-18T06:11:26.977Z,102987.47
2022-12-18T06:13:58.544Z,102989.25
2022-12-18T06:16:26.578Z,102990.19
2022-12-18T06:18:53.261Z,102992.09
2022-12-18T06:21:19.796Z,102991.28
2022-12-18T06:23:46.366Z,102990.31
2022-12-18T06:26:14.037Z,102995.66
2022-12-18T06:28:41.818Z,102978.03
2022-12-18T06:31:09.555Z,102975.44
2022-12-18T06:33:36.721Z,102974.59
2022-12-18T06:36:13.796Z,102961.31
2022-12-18T06:38:43.644Z,102958.91
2022-12-18T06:41:22.189Z,102957.88
2022-12-18T06:43:48.871Z,102956.03
2022-12-18T06:46:15.752Z,102941.34
2022-12-18T06:48:42.458Z,102939.31
2022-12-18T06:51:09.477Z,102924.63
2022-12-18T06:53:36.111Z,102928.91
2022-12-18T06:56:10.719Z,102933.19
2022-12-18T06:58:39.463Z,102924.56
2022-12-18T07:01:08.500Z,102929.69
2022-12-18T07:03:35.644Z,102927.91
2022-12-18T07:06:02.392Z,102924.41
2022-12-18T07:08:31.604Z,102921.13
2022-12-18T07:10:58.289Z,102924.47
2022-12-18T07:13:25.009Z,102920.03
2022-12-18T07:15:51.498Z,102917.56
2022-12-18T07:18:18.015Z,102923.63
2022-12-18T07:20:45.163Z,102912.41
2022-12-18T07:23:12.513Z,102909.66
2022-12-18T07:25:39.383Z,102913.03
2022-12-18T07:28:06.426Z,102913.03
2022-12-18T07:30:32.964Z,102909.66
2022-12-18T07:32:59.554Z,102910.50
2022-12-18T07:35:26.093Z,102912.28
2022-12-18T07:37:52.650Z,102897.63
2022-12-18T07:40:19.684Z,102904.44
2022-12-18T07:42:46.218Z,102894.78
2022-12-18T07:45:12.787Z,102893.88
2022-12-18T07:47:39.521Z,102878.94
2022-12-18T07:50:06.723Z,102878.03
2022-12-18T07:52:33.306Z,102878.09
2022-12-18T07:55:00.058Z,102871.94
2022-12-18T07:57:49.571Z,102871.09
2022-12-18T08:00:14.580Z,102850.16
2022-12-18T08:02:41.333Z,102859.81
2022-12-18T08:05:09.561Z,102862.44
2022-12-18T08:07:36.098Z,102858.94
2022-12-18T08:10:02.662Z,102858.09
2022-12-18T08:12:30.628Z,102849.25
2022-12-18T08:14:57.719Z,102850.34
2022-12-18T08:17:25.128Z,102861.59
2022-12-18T08:19:51.654Z,102866.94
2022-12-18T08:22:18.678Z,102865.16
2022-12-18T08:24:46.450Z,102874.78
2022-12-18T08:27:28.986Z,102870.59
2022-12-18T08:29:56.907Z,102875.72
2022-12-18T08:32:23.790Z,102873.00
2022-12-18T08:34:50.442Z,102883.31
2022-12-18T08:37:17.018Z,102886.72
2022-12-18T08:39:44.098Z,102888.44
2022-12-18T08:42:29.884Z,102874.53
2022-12-18T08:44:56.433Z,102890.06
2022-12-18T08:47:22.947Z,102883.91
2022-12-18T08:49:49.487Z,102889.94
2022-12-18T08:52:16.052Z,102891.66
2022-12-18T08:54:42.579Z,102890.72
2022-12-18T08:57:09.104Z,102894.03
2022-12-18T08:59:35.645Z,102878.16
2022-12-18T09:02:02.328Z,102871.78
2022-12-18T09:04:28.991Z,102867.28
2022-12-18T09:06:55.500Z,102868.09
2022-12-18T09:09:22.301Z,102861.81
2022-12-18T09:11:48.818Z,102872.28
2022-12-18T09:14:15.373Z,102866.84
2022-12-18T09:16:42.002Z,102865.06
2022-12-18T09:19:08.547Z,102849.31
2022-12-18T09:21:37.120Z,102852.63
2022-12-18T09:24:04.549Z,102848.13
2022-12-18T09:26:35.577Z,102852.50
2022-12-18T09:29:03.536Z,102852.41
2022-12-18T09:31:30.107Z,102847.09
2022-12-18T09:33:57.705Z,102846.16
2022-12-18T09:36:24.263Z,102843.53
2022-12-18T09:38:50.784Z,102848.63
2022-12-18T09:41:23.483Z,102845.06
2022-12-18T09:43:56.307Z,102840.56
2022-12-18T09:46:34.099Z,102839.72
2022-12-18T09:49:04.951Z,102833.50
2022-12-18T09:51:35.172Z,102837.94
2022-12-18T09:54:08.640Z,102826.66
2022-12-18T09:56:42.660Z,102817.78
2022-12-18T09:59:21.700Z,102808.16
2022-12-18T10:01:48.378Z,102821.47
2022-12-18T10:04:15.539Z,102825.03
2022-12-18T10:07:10.148Z,102813.91
2022-12-18T10:09:54.739Z,102818.22
2022-12-18T10:12:31.979Z,102814.09
2022-12-18T10:15:16.396Z,102807.78
2022-12-18T10:17:53.101Z,102811.47
2022-12-18T10:20:33.542Z,102801.03
2022-12-18T10:23:26.865Z,102798.59
2022-12-18T10:26:08.528Z,102795.25
2022-12-18T10:28:39.333Z,102810.03
2022-12-18T10:31:17.911Z,102804.81
2022-12-18T10:33:45.049Z,102790.03
2022-12-18T10:36:12.427Z,102784.75
2022-12-18T10:38:39.355Z,102788.25
2022-12-18T10:41:26.751Z,102791.91
2022-12-18T10:44:12.615Z,102797.19
2022-12-18T10:46:39.617Z,102796.41
2022-12-18T10:49:06.377Z,102793.78
2022-12-18T10:51:37.686Z,102772.78
2022-12-18T10:54:07.704Z,102777.06
2022-12-18T10:56:37.289Z,102780.56
2022-12-18T10:59:09.313Z,102782.28
2022-12-18T11:01:51.663Z,102775.22
2022-12-18T11:04:24.869Z,102765.50
2022-12-18T11:06:56.522Z,102766.25
2022-12-18T11:09:25.809Z,102757.41
2022-12-18T11:11:57.999Z,102743.34
2022-12-18T11:14:34.741Z,102733.63
2022-12-18T11:19:55.350Z,102739.41
2022-12-18T11:22:34.612Z,102732.34
2022-12-18T11:25:32.516Z,102732.19
2022-12-18T11:28:01.245Z,102736.38
2022-12-18T11:30:35.004Z,102740.72
2022-12-18T11:33:07.503Z,102738.00
2022-12-18T11:35:46.431Z,102729.16
2022-12-18T11:38:24.279Z,102731.78
2022-12-18T11:40:59.725Z,102723.88
2022-12-18T11:43:51.218Z,102709.94
2022-12-18T11:46:39.067Z,102717.59
2022-12-18T11:49:21.096Z,102711.56
2022-12-18T11:51:59.914Z,102712.34
2022-12-18T11:54:26.620Z,102710.56
2022-12-18T11:57:08.252Z,102705.28
2022-12-18T12:00:02.459Z,102680.88
2022-12-18T12:02:57.123Z,102679.72
2022-12-18T12:05:35.549Z,102673.66
2022-12-18T12:08:18.144Z,102663.94
2022-12-18T12:11:02.981Z,102656.09
2022-12-18T12:13:36.545Z,102652.66
2022-12-18T12:16:07.729Z,102659.72
2022-12-18T12:19:02.808Z,102657.09
2022-12-18T12:22:05.410Z,102650.16
2022-12-18T12:24:52.169Z,102646.69
2022-12-18T12:27:27.638Z,102637.16
2022-12-18T12:30:06.226Z,102630.31
2022-12-18T12:33:02.836Z,102625.94
2022-12-18T12:36:17.550Z,102628.44
2022-12-18T12:38:52.436Z,102626.56
2022-12-18T12:41:43.265Z,102617.78
2022-12-18T12:44:18.973Z,102610.88
2022-12-18T12:46:47.766Z,102621.09
2022-12-18T12:49:18.421Z,102614.03
2022-12-18T12:51:50.786Z,102609.69
2022-12-18T12:54:22.511Z,102608.69
2022-12-18T12:56:54.875Z,102611.25
2022-12-18T12:59:47.245Z,102621.88
2022-12-18T13:02:31.972Z,102617.38
2022-12-18T13:05:13.282Z,102604.16
2022-12-18T13:08:07.230Z,102584.31
2022-12-18T13:10:43.401Z,102596.16
2022-12-18T13:13:17.339Z,102598.97
2022-12-18T13:16:07.937Z,102594.53
2022-12-18T13:18:35.545Z,102600.59
2022-12-18T13:21:03.771Z,102601.31
2022-12-18T13:23:37.244Z,102593.53
2022-12-18T13:26:06.983Z,102599.53
2022-12-18T13:28:52.823Z,102587.31
2022-12-18T13:31:41.208Z,102588.13
2022-12-18T13:34:26.300Z,102578.41
2022-12-18T13:36:54.983Z,102576.66
2022-12-18T13:39:27.682Z,102566.97
2022-12-18T13:42:05.487Z,102558.16
2022-12-18T13:44:40.841Z,102544.91
2022-12-18T13:47:34.542Z,102538.75
2022-12-18T13:50:10.598Z,102519.63
2022-12-18T13:52:40.746Z,102522.91
2022-12-18T13:55:17.102Z,102521.16
2022-12-18T13:57:43.604Z,102523.75
2022-12-18T14:00:30.550Z,102515.75
2022-12-18T14:02:59.233Z,102512.19
2022-12-18T14:05:32.786Z,102514.81
2022-12-18T14:08:06.679Z,102511.22
2022-12-18T14:10:45.199Z,102521.78
2022-12-18T14:13:30.519Z,102513.13
2022-12-18T14:16:03.795Z,102514.63
2022-12-18T14:18:41.864Z,102501.41
2022-12-18T14:21:19.532Z,102502.28
2022-12-18T14:23:46.259Z,102502.03
2022-12-18T14:26:26.450Z,102471.69
2022-12-18T14:28:54.784Z,102489.59
2022-12-18T14:31:23.508Z,102497.44
2022-12-18T14:33:50.917Z,102487.03
2022-12-18T14:36:20.482Z,102485.09
2022-12-18T14:38:57.882Z,102478.09
2022-12-18T14:41:25.908Z,102472.59
2022-12-18T14:43:55.134Z,102467.31
2022-12-18T14:46:34.170Z,102454.97
2022-12-18T14:49:04.648Z,102462.88
2022-12-18T14:51:34.117Z,102448.94
2022-12-18T14:54:04.289Z,102449.66
2022-12-18T14:56:36.818Z,102444.50
2022-12-18T14:59:05.419Z,102447.13
2022-12-18T15:01:40.489Z,102444.81
2022-12-18T15:04:37.037Z,102438.59
2022-12-18T15:07:11.183Z,102443.03
2022-12-18T15:09:39.497Z,102448.41
2022-12-18T15:12:06.723Z,102437.13
2022-12-18T15:14:43.138Z,102445.25
2022-12-18T15:17:22.476Z,102445.41
2022-12-18T15:19:53.356Z,102444.53
2022-12-18T15:22:28.828Z,102445.56
2022-12-18T15:24:57.015Z,102439.50
2022-12-18T15:27:36.716Z,102443.06
2022-12-18T15:30:09.182Z,102438.63
2022-12-18T15:32:37.728Z,102439.66
2022-12-18T15:35:10.190Z,102446.72
2022-12-18T15:37:36.753Z,102437.13
2022-12-18T15:40:03.912Z,102436.28
2022-12-18T15:42:49.736Z,102414.28
2022-12-18T15:45:16.653Z,102430.28
2022-12-18T15:47:45.350Z,102414.53
2022-12-18T15:50:12.429Z,102425.78
2022-12-18T15:52:47.485Z,102405.75
2022-12-18T15:55:41.564Z,102410.00
2022-12-18T15:58:10.638Z,102403.72
2022-12-18T16:00:39.898Z,102397.50
2022-12-18T16:03:07.690Z,102388.59
2022-12-18T16:05:34.476Z,102380.78
2022-12-18T16:08:00.994Z,102371.72
2022-12-18T16:10:28.192Z,102367.28
2022-12-18T16:12:54.871Z,102361.25
2022-12-18T16:15:24.719Z,102356.56
2022-12-18T16:17:52.868Z,102354.78
2022-12-18T16:20:23.139Z,102364.41
2022-12-18T16:22:50.321Z,102344.22
2022-12-18T16:25:19.657Z,102341.44
2022-12-18T16:27:46.250Z,102350.22
2022-12-18T16:30:21.931Z,102339.56
2022-12-18T16:32:48.499Z,102338.72
2022-12-18T16:35:16.344Z,102338.72
2022-12-18T16:37:44.189Z,102336.81
2022-12-18T16:40:13.460Z,102314.06
2022-12-18T16:42:42.600Z,102314.00
2022-12-18T16:45:12.050Z,102315.84
2022-12-18T16:47:38.721Z,102322.66
2022-12-18T16:50:06.230Z,102325.28
2022-12-18T16:52:32.858Z,102321.81
2022-12-18T16:54:59.375Z,102322.56
2022-12-18T16:57:26.068Z,102318.91
2022-12-18T16:59:53.502Z,102304.75
2022-12-18T17:02:26.178Z,102310.72
2022-12-18T17:04:58.497Z,102309.78
2022-12-18T17:07:26.013Z,102307.13
2022-12-18T17:09:54.155Z,102304.59
2022-12-18T17:12:21.394Z,102292.47
2022-12-18T17:14:48.572Z,102315.41
2022-12-18T17:17:23.713Z,102317.13
2022-12-18T17:19:52.211Z,102313.53
2022-12-18T17:22:19.209Z,102315.31
2022-12-18T17:24:46.994Z,102312.84
2022-12-18T17:27:13.609Z,102313.63
2022-12-18T17:29:45.382Z,102312.06
2022-12-18T17:32:14.868Z,102298.78
2022-12-18T17:34:41.588Z,102308.41
2022-12-18T17:37:08.332Z,102307.56
2022-12-18T17:39:35.338Z,102313.78
2022-12-18T17:42:02.364Z,102316.44
2022-12-18T17:44:28.919Z,102313.78
2022-12-18T17:46:55.587Z,102312.00
2022-12-18T17:49:22.207Z,102297.06
2022-12-18T17:51:49.083Z,102305.00
2022-12-18T17:54:15.754Z,102299.91
2022-12-18T17:56:42.516Z,102307.66
2022-12-18T17:59:09.528Z,102305.84
2022-12-18T18:01:42.407Z,102307.72
2022-12-18T18:04:11.104Z,102300.78
2022-12-18T18:06:38.997Z,102298.13
2022-12-18T18:09:08.215Z,102290.38
2022-12-18T18:12:02.471Z,102280.72
2022-12-18T18:14:29.230Z,102289.56
2022-12-18T18:16:56.276Z,102298.31
2022-12-18T18:19:25.474Z,102295.88
2022-12-18T18:21:53.844Z,102289.75
2022-12-18T18:24:26.045Z,102301.16
2022-12-18T18:26:53.366Z,102285.47
2022-12-18T18:29:24.342Z,102291.63
2022-12-18T18:31:53.367Z,102283.69
2022-12-18T18:34:25.624Z,102275.75
2022-12-18T18:36:52.177Z,102273.13
2022-12-18T18:39:19.494Z,102271.34
2022-12-18T18:41:48.183Z,102283.59
2022-12-18T18:44:16.314Z,102288.03
2022-12-18T18:46:42.894Z,102274.66
2022-12-18T18:49:10.329Z,102270.13
2022-12-18T18:51:36.828Z,102266.63
2022-12-18T18:54:03.449Z,102264.84
2022-12-18T18:59:18.267Z,102264.81
2022-12-18T19:01:45.578Z,102263.88
2022-12-18T19:04:12.236Z,102264.72
2022-12-18T19:06:39.247Z,102246.31
2022-12-18T19:09:06.685Z,102245.44
2022-12-18T19:11:52.509Z,102263.88
2022-12-18T19:14:20.266Z,102246.22
2022-12-18T19:16:46.843Z,102232.63
2022-12-18T19:19:14.042Z,102245.28
2022-12-18T19:21:41.108Z,102251.38
2022-12-18T19:24:09.296Z,102242.53
2022-12-18T19:26:37.786Z,102239.78
2022-12-18T19:29:06.574Z,102242.44
2022-12-18T19:31:36.483Z,102253.78
2022-12-18T19:34:06.727Z,102245.06
2022-12-18T19:36:35.120Z,102258.13
2022-12-18T19:39:02.281Z,102252.91
2022-12-18T19:41:31.415Z,102245.06
2022-12-18T19:44:00.044Z,102255.47
2022-12-18T19:46:28.770Z,102255.38
2022-12-18T19:48:55.301Z,102259.81
2022-12-18T19:51:27.198Z,102258.88
2022-12-18T19:53:59.107Z,102259.91
2022-12-18T19:56:30.355Z,102260.75
2022-12-18T19:58:57.678Z,102258.97
2022-12-18T20:01:26.628Z,102249.44
2022-12-18T20:03:54.654Z,102244.06
2022-12-18T20:06:31.813Z,102248.50
2022-12-18T20:09:01.716Z,102240.66
2022-12-18T20:11:30.122Z,102243.28
2022-12-18T20:13:57.828Z,102239.78
2022-12-18T20:16:24.522Z,102246.88
2022-12-18T20:18:51.350Z,102250.38
2022-12-18T20:21:19.024Z,102244.31
2022-12-18T20:23:46.605Z,102254.03
2022-12-18T20:26:13.353Z,102240.94
2022-12-18T20:28:40.707Z,102230.59
2022-12-18T20:31:10.400Z,102235.97
2022-12-18T20:33:37.799Z,102238.59
2022-12-18T20:36:07.803Z,102236.03
2022-12-18T20:38:35.795Z,102237.91
2022-12-18T20:41:08.262Z,102236.22
2022-12-18T20:43:35.279Z,102229.22
2022-12-18T20:46:04.000Z,102227.81
2022-12-18T20:48:31.307Z,102222.44
2022-12-18T20:51:06.126Z,102222.63
2022-12-18T20:53:33.861Z,102215.53
2022-12-18T20:56:01.566Z,102198.91
2022-12-18T20:58:28.343Z,102197.13
2022-12-18T21:01:11.056Z,102192.03
2022-12-18T21:03:39.973Z,102198.91
2022-12-18T21:06:08.141Z,102189.28
2022-12-18T21:08:35.347Z,102189.47
2022-12-18T21:11:38.486Z,102189.38
2022-12-18T21:14:10.080Z,102178.91
2022-12-18T21:16:37.115Z,102180.81
2022-12-18T21:19:03.909Z,102180.81
2022-12-18T21:21:30.710Z,102176.38
2022-12-18T21:24:02.483Z,102180.81
2022-12-18T21:26:29.109Z,102170.25
2022-12-18T21:28:57.692Z,102177.31
2022-12-18T21:31:27.760Z,102162.31
2022-12-18T21:33:58.346Z,102161.56
2022-12-18T21:36:29.851Z,102149.19
2022-12-18T21:38:57.360Z,102142.22
2022-12-18T21:41:44.120Z,102145.78
2022-12-18T21:44:14.867Z,102132.59
2022-12-18T21:46:51.382Z,102131.72
2022-12-18T21:49:21.869Z,102131.81
2022-12-18T21:51:55.212Z,102121.25
2022-12-18T21:54:22.542Z,102117.94
2022-12-18T21:56:54.633Z,102131.91
2022-12-18T21:59:33.071Z,102112.75
2022-12-18T22:02:02.534Z,102124.06
2022-12-18T22:04:29.743Z,102114.44
2022-12-18T22:06:56.555Z,102098.59
2022-12-18T22:09:25.126Z,102109.16
2022-12-18T22:11:52.219Z,102099.84
2022-12-18T22:14:19.667Z,102101.31
2022-12-18T22:16:47.353Z,102108.31
2022-12-18T22:19:15.492Z,102088.97
2022-12-18T22:21:46.549Z,102088.97
2022-12-18T22:24:18.877Z,102079.47
2022-12-18T22:26:46.255Z,102067.13
2022-12-18T22:29:40.539Z,102055.50
2022-12-18T22:32:09.444Z,102047.56
2022-12-18T22:34:38.637Z,102027.38
2022-12-18T22:37:05.362Z,102034.38
2022-12-18T22:39:32.371Z,102034.38
2022-12-18T22:41:59.356Z,102025.59
2022-12-18T22:44:26.161Z,102011.53
2022-12-18T22:47:05.518Z,101994.00
2022-12-18T22:49:35.544Z,102004.56
2022-12-18T22:52:04.022Z,102006.25
2022-12-18T22:54:30.873Z,102007.13
2022-12-18T22:56:57.701Z,102004.69
2022-12-18T22:59:24.913Z,102009.84
2022-12-18T23:01:58.392Z,102001.91
2022-12-18T23:04:29.082Z,101986.06
2022-12-18T23:07:04.012Z,101974.69
2022-12-18T23:09:30.644Z,101971.22
2022-12-18T23:11:57.657Z,101961.84
2022-12-18T23:14:24.756Z,101956.41
2022-12-18T23:16:52.280Z,101967.59
2022-12-18T23:19:19.991Z,101964.22
2022-12-18T23:21:46.655Z,101967.41
2022-12-18T23:24:14.073Z,101968.25
2022-12-18T23:26:41.297Z,101940.16
2022-12-18T23:29:08.242Z,101949.69
2022-12-18T23:31:37.793Z,101948.84
2022-12-18T23:34:05.648Z,101952.50
2022-12-18T23:36:35.238Z,101950.53
2022-12-18T23:39:15.449Z,101932.16
2022-12-18T23:41:55.425Z,101930.25
2022-12-18T23:44:22.501Z,101935.53
2022-12-18T23:46:49.554Z,101932.06
2022-12-18T23:49:16.120Z,101932.91
2022-12-18T23:51:42.877Z,101930.44
2022-12-18T23:54:11.056Z,101940.81
2022-12-18T23:56:37.653Z,101947.81
2022-12-18T23:59:04.698Z,101955.72
